sensor_id;sensor_type;location;lat;lon;timestamp;temperature;humidity
7317;DHT22;3699;51.462;6.696;2023-07-29T00:00:04;19.70;99.90
7317;DHT22;3699;51.462;6.696;2023-07-29T00:02:32;19.70;99.90
7317;DHT22;3699;51.462;6.696;2023-07-29T00:04:58;19.70;99.90
7317;DHT22;3699;51.462;6.696;2023-07-29T00:07:26;19.60;99.90
7317;DHT22;3699;51.462;6.696;2023-07-29T00:09:53;19.70;99.90
7317;DHT22;3699;51.462;6.696;2023-07-29T00:12:20;19.60;99.90
7317;DHT22;3699;51.462;6.696;2023-07-29T00:14:47;19.60;99.90
7317;DHT22;3699;51.462;6.696;2023-07-29T00:17:13;19.60;99.90
7317;DHT22;3699;51.462;6.696;2023-07-29T00:19:40;19.60;99.90
7317;DHT22;3699;51.462;6.696;2023-07-29T00:22:07;19.60;99.90
7317;DHT22;3699;51.462;6.696;2023-07-29T00:24:35;19.70;99.90
7317;DHT22;3699;51.462;6.696;2023-07-29T00:27:02;19.70;99.90
7317;DHT22;3699;51.462;6.696;2023-07-29T00:29:29;19.70;99.90
7317;DHT22;3699;51.462;6.696;2023-07-29T00:31:55;19.70;99.90
7317;DHT22;3699;51.462;6.696;2023-07-29T00:34:22;19.70;99.90
7317;DHT22;3699;51.462;6.696;2023-07-29T00:36:49;19.80;99.90
7317;DHT22;3699;51.462;6.696;2023-07-29T00:39:16;19.80;99.90
7317;DHT22;3699;51.462;6.696;2023-07-29T00:41:44;19.90;99.90
7317;DHT22;3699;51.462;6.696;2023-07-29T00:44:10;19.80;99.90
7317;DHT22;3699;51.462;6.696;2023-07-29T00:46:38;19.90;99.90
7317;DHT22;3699;51.462;6.696;2023-07-29T00:49:06;19.90;99.90
7317;DHT22;3699;51.462;6.696;2023-07-29T00:51:33;19.90;99.90
7317;DHT22;3699;51.462;6.696;2023-07-29T00:56:27;19.90;99.90
7317;DHT22;3699;51.462;6.696;2023-07-29T00:58:55;19.90;99.90
7317;DHT22;3699;51.462;6.696;2023-07-29T01:01:25;19.90;99.90
7317;DHT22;3699;51.462;6.696;2023-07-29T01:03:52;19.90;99.90
7317;DHT22;3699;51.462;6.696;2023-07-29T01:06:26;20.00;99.90
7317;DHT22;3699;51.462;6.696;2023-07-29T01:09:01;20.00;99.90
7317;DHT22;3699;51.462;6.696;2023-07-29T01:11:35;20.00;99.90
7317;DHT22;3699;51.462;6.696;2023-07-29T01:14:15;19.40;99.90
7317;DHT22;3699;51.462;6.696;2023-07-29T01:16:48;20.00;99.90
7317;DHT22;3699;51.462;6.696;2023-07-29T01:19:26;20.00;99.90
7317;DHT22;3699;51.462;6.696;2023-07-29T01:21:58;20.00;99.90
7317;DHT22;3699;51.462;6.696;2023-07-29T01:24:26;20.00;99.90
7317;DHT22;3699;51.462;6.696;2023-07-29T01:26:53;20.00;99.90
7317;DHT22;3699;51.462;6.696;2023-07-29T01:29:19;20.10;99.90
7317;DHT22;3699;51.462;6.696;2023-07-29T01:31:47;20.10;99.90
7317;DHT22;3699;51.462;6.696;2023-07-29T01:34:24;20.10;99.90
7317;DHT22;3699;51.462;6.696;2023-07-29T01:36:54;20.10;99.90
7317;DHT22;3699;51.462;6.696;2023-07-29T01:39:25;20.10;99.90
7317;DHT22;3699;51.462;6.696;2023-07-29T01:41:54;20.10;99.90
7317;DHT22;3699;51.462;6.696;2023-07-29T01:44:21;20.10;99.90
7317;DHT22;3699;51.462;6.696;2023-07-29T01:46:49;20.10;99.90
7317;DHT22;3699;51.462;6.696;2023-07-29T01:49:16;20.10;99.90
7317;DHT22;3699;51.462;6.696;2023-07-29T01:51:43;20.10;99.90
7317;DHT22;3699;51.462;6.696;2023-07-29T01:54:10;20.10;99.90
7317;DHT22;3699;51.462;6.696;2023-07-29T01:56:38;20.10;99.90
7317;DHT22;3699;51.462;6.696;2023-07-29T01:59:04;20.20;99.90
7317;DHT22;3699;51.462;6.696;2023-07-29T02:01:31;20.20;99.90
7317;DHT22;3699;51.462;6.696;2023-07-29T02:03:58;20.10;99.90
7317;DHT22;3699;51.462;6.696;2023-07-29T02:06:24;20.10;99.90
7317;DHT22;3699;51.462;6.696;2023-07-29T02:08:54;20.20;99.90
7317;DHT22;3699;51.462;6.696;2023-07-29T02:11:21;20.20;99.90
7317;DHT22;3699;51.462;6.696;2023-07-29T02:13:54;20.20;99.90
7317;DHT22;3699;51.462;6.696;2023-07-29T02:16:21;20.20;99.90
7317;DHT22;3699;51.462;6.696;2023-07-29T02:18:48;20.20;99.90
7317;DHT22;3699;51.462;6.696;2023-07-29T02:21:15;20.20;99.90
7317;DHT22;3699;51.462;6.696;2023-07-29T02:23:42;20.20;99.90
7317;DHT22;3699;51.462;6.696;2023-07-29T02:26:09;20.20;99.90
7317;DHT22;3699;51.462;6.696;2023-07-29T02:28:36;20.20;99.90
7317;DHT22;3699;51.462;6.696;2023-07-29T02:31:14;20.20;99.90
7317;DHT22;3699;51.462;6.696;2023-07-29T02:33:41;20.20;99.90
7317;DHT22;3699;51.462;6.696;2023-07-29T02:36:08;20.20;99.90
7317;DHT22;3699;51.462;6.696;2023-07-29T02:38:35;20.20;99.90
7317;DHT22;3699;51.462;6.696;2023-07-29T02:41:02;20.20;99.90
7317;DHT22;3699;51.462;6.696;2023-07-29T02:43:28;20.20;99.90
7317;DHT22;3699;51.462;6.696;2023-07-29T02:45:55;20.20;99.90
7317;DHT22;3699;51.462;6.696;2023-07-29T02:48:25;20.20;99.90
7317;DHT22;3699;51.462;6.696;2023-07-29T02:50:52;20.20;99.90
7317;DHT22;3699;51.462;6.696;2023-07-29T02:53:18;20.10;99.90
7317;DHT22;3699;51.462;6.696;2023-07-29T02:55:45;20.20;99.90
7317;DHT22;3699;51.462;6.696;2023-07-29T02:58:12;20.20;99.90
7317;DHT22;3699;51.462;6.696;2023-07-29T03:00:39;20.20;99.90
7317;DHT22;3699;51.462;6.696;2023-07-29T03:03:07;20.20;99.90
7317;DHT22;3699;51.462;6.696;2023-07-29T03:05:35;20.20;99.90
7317;DHT22;3699;51.462;6.696;2023-07-29T03:08:03;20.20;99.90
7317;DHT22;3699;51.462;6.696;2023-07-29T03:10:30;20.10;99.90
7317;DHT22;3699;51.462;6.696;2023-07-29T03:12:56;20.10;99.90
7317;DHT22;3699;51.462;6.696;2023-07-29T03:15:23;20.10;99.90
7317;DHT22;3699;51.462;6.696;2023-07-29T03:17:51;20.10;99.90
7317;DHT22;3699;51.462;6.696;2023-07-29T03:20:18;20.10;99.90
7317;DHT22;3699;51.462;6.696;2023-07-29T03:22:46;20.10;99.90
7317;DHT22;3699;51.462;6.696;2023-07-29T03:25:13;20.10;99.90
7317;DHT22;3699;51.462;6.696;2023-07-29T03:27:40;20.10;99.90
7317;DHT22;3699;51.462;6.696;2023-07-29T03:30:07;20.10;99.90
7317;DHT22;3699;51.462;6.696;2023-07-29T03:32:34;20.10;99.90
7317;DHT22;3699;51.462;6.696;2023-07-29T03:35:01;20.10;99.90
7317;DHT22;3699;51.462;6.696;2023-07-29T03:37:28;20.10;99.90
7317;DHT22;3699;51.462;6.696;2023-07-29T03:39:56;20.00;99.90
7317;DHT22;3699;51.462;6.696;2023-07-29T03:42:23;20.00;99.90
7317;DHT22;3699;51.462;6.696;2023-07-29T03:44:50;20.00;99.90
7317;DHT22;3699;51.462;6.696;2023-07-29T03:47:16;19.90;99.90
7317;DHT22;3699;51.462;6.696;2023-07-29T03:49:43;19.90;99.90
7317;DHT22;3699;51.462;6.696;2023-07-29T03:52:10;19.90;99.90
7317;DHT22;3699;51.462;6.696;2023-07-29T03:54:36;19.80;99.90
7317;DHT22;3699;51.462;6.696;2023-07-29T03:57:05;19.80;99.90
7317;DHT22;3699;51.462;6.696;2023-07-29T03:59:32;19.80;99.90
7317;DHT22;3699;51.462;6.696;2023-07-29T04:01:59;19.80;99.90
7317;DHT22;3699;51.462;6.696;2023-07-29T04:04:26;19.70;99.90
7317;DHT22;3699;51.462;6.696;2023-07-29T04:06:52;19.70;99.90
7317;DHT22;3699;51.462;6.696;2023-07-29T04:09:19;19.70;99.90
7317;DHT22;3699;51.462;6.696;2023-07-29T04:11:46;19.70;99.90
7317;DHT22;3699;51.462;6.696;2023-07-29T04:14:14;19.60;99.90
7317;DHT22;3699;51.462;6.696;2023-07-29T04:16:41;19.60;99.90
7317;DHT22;3699;51.462;6.696;2023-07-29T04:19:07;19.60;99.90
7317;DHT22;3699;51.462;6.696;2023-07-29T04:21:34;19.60;99.90
7317;DHT22;3699;51.462;6.696;2023-07-29T04:24:01;19.60;99.90
7317;DHT22;3699;51.462;6.696;2023-07-29T04:26:28;19.60;99.90
7317;DHT22;3699;51.462;6.696;2023-07-29T04:28:54;19.60;99.90
7317;DHT22;3699;51.462;6.696;2023-07-29T04:31:22;19.60;99.90
7317;DHT22;3699;51.462;6.696;2023-07-29T04:33:49;19.60;99.90
7317;DHT22;3699;51.462;6.696;2023-07-29T04:36:16;19.60;99.90
7317;DHT22;3699;51.462;6.696;2023-07-29T04:38:42;19.60;99.90
7317;DHT22;3699;51.462;6.696;2023-07-29T04:41:09;19.60;99.90
7317;DHT22;3699;51.462;6.696;2023-07-29T04:43:36;19.60;99.90
7317;DHT22;3699;51.462;6.696;2023-07-29T04:46:06;19.60;99.90
7317;DHT22;3699;51.462;6.696;2023-07-29T04:48:34;19.60;99.90
7317;DHT22;3699;51.462;6.696;2023-07-29T04:51:01;19.50;99.90
7317;DHT22;3699;51.462;6.696;2023-07-29T04:53:28;19.50;99.90
7317;DHT22;3699;51.462;6.696;2023-07-29T04:55:54;19.50;99.90
7317;DHT22;3699;51.462;6.696;2023-07-29T04:58:21;19.50;99.90
7317;DHT22;3699;51.462;6.696;2023-07-29T05:00:48;19.50;99.90
7317;DHT22;3699;51.462;6.696;2023-07-29T05:03:14;19.50;99.90
7317;DHT22;3699;51.462;6.696;2023-07-29T05:05:43;19.50;99.90
7317;DHT22;3699;51.462;6.696;2023-07-29T05:08:09;19.60;99.90
7317;DHT22;3699;51.462;6.696;2023-07-29T05:10:36;19.60;99.90
7317;DHT22;3699;51.462;6.696;2023-07-29T05:13:03;19.70;99.90
7317;DHT22;3699;51.462;6.696;2023-07-29T05:15:29;19.70;99.90
7317;DHT22;3699;51.462;6.696;2023-07-29T05:17:56;19.70;99.90
7317;DHT22;3699;51.462;6.696;2023-07-29T05:20:23;19.90;99.90
7317;DHT22;3699;51.462;6.696;2023-07-29T05:22:51;19.80;99.90
7317;DHT22;3699;51.462;6.696;2023-07-29T05:25:18;19.90;99.90
7317;DHT22;3699;51.462;6.696;2023-07-29T05:27:44;20.00;99.90
7317;DHT22;3699;51.462;6.696;2023-07-29T05:30:11;20.10;99.90
7317;DHT22;3699;51.462;6.696;2023-07-29T05:32:38;20.10;99.90
7317;DHT22;3699;51.462;6.696;2023-07-29T05:35:05;20.20;99.90
7317;DHT22;3699;51.462;6.696;2023-07-29T05:37:32;20.10;99.90
7317;DHT22;3699;51.462;6.696;2023-07-29T05:40:00;20.10;99.90
7317;DHT22;3699;51.462;6.696;2023-07-29T05:42:27;20.10;99.90
7317;DHT22;3699;51.462;6.696;2023-07-29T05:44:55;20.10;99.90
7317;DHT22;3699;51.462;6.696;2023-07-29T05:47:21;20.10;99.90
7317;DHT22;3699;51.462;6.696;2023-07-29T05:49:48;20.10;99.90
7317;DHT22;3699;51.462;6.696;2023-07-29T05:52:15;20.10;99.90
7317;DHT22;3699;51.462;6.696;2023-07-29T05:54:42;20.10;99.90
7317;DHT22;3699;51.462;6.696;2023-07-29T05:57:10;20.10;99.90
7317;DHT22;3699;51.462;6.696;2023-07-29T05:59:37;20.00;99.90
7317;DHT22;3699;51.462;6.696;2023-07-29T06:02:05;20.00;99.90
7317;DHT22;3699;51.462;6.696;2023-07-29T06:04:31;20.00;99.90
7317;DHT22;3699;51.462;6.696;2023-07-29T06:06:58;19.90;99.90
7317;DHT22;3699;51.462;6.696;2023-07-29T06:09:25;19.90;99.90
7317;DHT22;3699;51.462;6.696;2023-07-29T06:11:52;19.90;99.90
7317;DHT22;3699;51.462;6.696;2023-07-29T06:14:20;19.90;99.90
7317;DHT22;3699;51.462;6.696;2023-07-29T06:16:47;20.00;99.90
7317;DHT22;3699;51.462;6.696;2023-07-29T06:19:13;20.10;99.90
7317;DHT22;3699;51.462;6.696;2023-07-29T06:21:40;20.20;99.90
7317;DHT22;3699;51.462;6.696;2023-07-29T06:24:07;20.40;99.90
7317;DHT22;3699;51.462;6.696;2023-07-29T06:26:33;20.40;99.90
7317;DHT22;3699;51.462;6.696;2023-07-29T06:29:00;20.50;99.90
7317;DHT22;3699;51.462;6.696;2023-07-29T06:31:28;20.60;99.90
7317;DHT22;3699;51.462;6.696;2023-07-29T06:33:55;20.60;99.90
7317;DHT22;3699;51.462;6.696;2023-07-29T06:36:22;19.80;99.90
7317;DHT22;3699;51.462;6.696;2023-07-29T06:38:49;20.70;99.90
7317;DHT22;3699;51.462;6.696;2023-07-29T06:41:16;20.70;99.90
7317;DHT22;3699;51.462;6.696;2023-07-29T06:43:42;20.70;99.90
7317;DHT22;3699;51.462;6.696;2023-07-29T06:46:09;20.80;99.90
7317;DHT22;3699;51.462;6.696;2023-07-29T06:48:37;20.90;99.90
7317;DHT22;3699;51.462;6.696;2023-07-29T06:51:04;21.00;99.90
7317;DHT22;3699;51.462;6.696;2023-07-29T06:53:31;21.30;99.90
7317;DHT22;3699;51.462;6.696;2023-07-29T06:55:57;21.30;99.90
7317;DHT22;3699;51.462;6.696;2023-07-29T06:58:25;21.40;99.90
7317;DHT22;3699;51.462;6.696;2023-07-29T07:00:52;21.50;99.90
7317;DHT22;3699;51.462;6.696;2023-07-29T07:03:18;21.70;99.90
7317;DHT22;3699;51.462;6.696;2023-07-29T07:05:47;21.90;99.90
7317;DHT22;3699;51.462;6.696;2023-07-29T07:08:13;22.00;99.90
7317;DHT22;3699;51.462;6.696;2023-07-29T07:10:40;22.40;99.90
7317;DHT22;3699;51.462;6.696;2023-07-29T07:13:07;23.40;99.90
7317;DHT22;3699;51.462;6.696;2023-07-29T07:15:33;23.50;99.90
7317;DHT22;3699;51.462;6.696;2023-07-29T07:18:00;23.90;99.90
7317;DHT22;3699;51.462;6.696;2023-07-29T07:20:27;24.20;99.90
7317;DHT22;3699;51.462;6.696;2023-07-29T07:22:55;24.30;99.90
7317;DHT22;3699;51.462;6.696;2023-07-29T07:25:22;24.30;99.90
7317;DHT22;3699;51.462;6.696;2023-07-29T07:27:48;24.30;99.90
7317;DHT22;3699;51.462;6.696;2023-07-29T07:30:15;24.30;99.90
7317;DHT22;3699;51.462;6.696;2023-07-29T07:32:42;24.60;99.90
7317;DHT22;3699;51.462;6.696;2023-07-29T07:35:09;24.80;99.90
7317;DHT22;3699;51.462;6.696;2023-07-29T07:37:35;25.10;99.90
7317;DHT22;3699;51.462;6.696;2023-07-29T07:40:04;25.20;99.90
7317;DHT22;3699;51.462;6.696;2023-07-29T07:42:31;25.30;99.90
7317;DHT22;3699;51.462;6.696;2023-07-29T07:44:58;25.50;99.90
7317;DHT22;3699;51.462;6.696;2023-07-29T07:47:25;25.80;99.90
7317;DHT22;3699;51.462;6.696;2023-07-29T07:49:51;26.00;99.90
7317;DHT22;3699;51.462;6.696;2023-07-29T07:52:18;26.30;99.90
7317;DHT22;3699;51.462;6.696;2023-07-29T07:54:45;26.60;99.90
7317;DHT22;3699;51.462;6.696;2023-07-29T07:57:13;26.80;99.90
7317;DHT22;3699;51.462;6.696;2023-07-29T07:59:39;27.00;99.90
7317;DHT22;3699;51.462;6.696;2023-07-29T08:02:06;27.10;99.90
7317;DHT22;3699;51.462;6.696;2023-07-29T08:04:33;27.10;99.90
7317;DHT22;3699;51.462;6.696;2023-07-29T08:07:00;27.20;99.90
7317;DHT22;3699;51.462;6.696;2023-07-29T08:09:30;27.10;99.90
7317;DHT22;3699;51.462;6.696;2023-07-29T08:11:58;27.20;99.90
7317;DHT22;3699;51.462;6.696;2023-07-29T08:14:26;27.30;97.00
7317;DHT22;3699;51.462;6.696;2023-07-29T08:16:54;27.40;98.30
7317;DHT22;3699;51.462;6.696;2023-07-29T08:19:22;27.30;99.90
7317;DHT22;3699;51.462;6.696;2023-07-29T08:21:49;27.10;99.90
7317;DHT22;3699;51.462;6.696;2023-07-29T08:24:16;27.00;98.50
7317;DHT22;3699;51.462;6.696;2023-07-29T08:26:43;26.70;95.50
7317;DHT22;3699;51.462;6.696;2023-07-29T08:29:09;26.60;98.70
7317;DHT22;3699;51.462;6.696;2023-07-29T08:31:38;26.60;99.90
7317;DHT22;3699;51.462;6.696;2023-07-29T08:34:06;26.60;99.90
7317;DHT22;3699;51.462;6.696;2023-07-29T08:36:33;26.80;99.90
7317;DHT22;3699;51.462;6.696;2023-07-29T08:39:06;26.80;96.50
7317;DHT22;3699;51.462;6.696;2023-07-29T08:41:37;26.80;99.90
7317;DHT22;3699;51.462;6.696;2023-07-29T08:44:09;26.90;99.70
7317;DHT22;3699;51.462;6.696;2023-07-29T08:46:38;26.90;99.90
7317;DHT22;3699;51.462;6.696;2023-07-29T08:49:06;26.80;99.90
7317;DHT22;3699;51.462;6.696;2023-07-29T08:51:33;26.40;99.90
7317;DHT22;3699;51.462;6.696;2023-07-29T08:54:01;26.40;99.90
7317;DHT22;3699;51.462;6.696;2023-07-29T08:56:28;26.20;99.90
7317;DHT22;3699;51.462;6.696;2023-07-29T08:58:56;26.20;99.90
7317;DHT22;3699;51.462;6.696;2023-07-29T09:01:23;26.00;99.90
7317;DHT22;3699;51.462;6.696;2023-07-29T09:03:51;25.70;99.90
7317;DHT22;3699;51.462;6.696;2023-07-29T09:06:19;25.30;99.90
7317;DHT22;3699;51.462;6.696;2023-07-29T09:08:46;25.20;99.90
7317;DHT22;3699;51.462;6.696;2023-07-29T09:11:15;25.00;99.90
7317;DHT22;3699;51.462;6.696;2023-07-29T09:13:42;25.10;99.90
7317;DHT22;3699;51.462;6.696;2023-07-29T09:16:10;25.10;99.90
7317;DHT22;3699;51.462;6.696;2023-07-29T09:18:37;25.00;99.90
7317;DHT22;3699;51.462;6.696;2023-07-29T09:21:06;24.90;99.90
7317;DHT22;3699;51.462;6.696;2023-07-29T09:23:38;24.70;99.90
7317;DHT22;3699;51.462;6.696;2023-07-29T09:26:06;24.50;99.90
7317;DHT22;3699;51.462;6.696;2023-07-29T09:28:34;24.20;99.90
7317;DHT22;3699;51.462;6.696;2023-07-29T09:31:01;23.60;99.90
7317;DHT22;3699;51.462;6.696;2023-07-29T09:33:28;23.70;99.90
7317;DHT22;3699;51.462;6.696;2023-07-29T09:35:57;23.60;99.90
7317;DHT22;3699;51.462;6.696;2023-07-29T09:38:27;23.50;99.90
7317;DHT22;3699;51.462;6.696;2023-07-29T09:40:55;23.50;99.90
7317;DHT22;3699;51.462;6.696;2023-07-29T09:43:25;23.60;99.90
7317;DHT22;3699;51.462;6.696;2023-07-29T09:45:52;23.70;99.90
7317;DHT22;3699;51.462;6.696;2023-07-29T09:48:22;24.00;99.90
7317;DHT22;3699;51.462;6.696;2023-07-29T09:50:49;24.30;99.90
7317;DHT22;3699;51.462;6.696;2023-07-29T09:53:16;24.50;99.90
7317;DHT22;3699;51.462;6.696;2023-07-29T09:55:47;24.90;99.90
7317;DHT22;3699;51.462;6.696;2023-07-29T09:58:19;25.40;99.90
7317;DHT22;3699;51.462;6.696;2023-07-29T10:00:54;25.80;99.90
7317;DHT22;3699;51.462;6.696;2023-07-29T10:03:21;26.20;99.90
7317;DHT22;3699;51.462;6.696;2023-07-29T10:05:48;26.60;99.90
7317;DHT22;3699;51.462;6.696;2023-07-29T10:08:16;26.50;99.90
7317;DHT22;3699;51.462;6.696;2023-07-29T10:10:44;26.50;99.90
7317;DHT22;3699;51.462;6.696;2023-07-29T10:13:12;26.50;99.90
7317;DHT22;3699;51.462;6.696;2023-07-29T10:15:39;26.60;99.90
7317;DHT22;3699;51.462;6.696;2023-07-29T10:18:07;27.00;99.90
7317;DHT22;3699;51.462;6.696;2023-07-29T10:20:34;27.40;99.90
7317;DHT22;3699;51.462;6.696;2023-07-29T10:23:03;27.70;99.90
7317;DHT22;3699;51.462;6.696;2023-07-29T10:25:38;28.00;95.10
7317;DHT22;3699;51.462;6.696;2023-07-29T10:28:07;28.30;93.30
7317;DHT22;3699;51.462;6.696;2023-07-29T10:30:35;28.50;89.30
7317;DHT22;3699;51.462;6.696;2023-07-29T10:33:03;28.40;89.20
7317;DHT22;3699;51.462;6.696;2023-07-29T10:35:30;28.20;79.10
7317;DHT22;3699;51.462;6.696;2023-07-29T10:37:59;28.10;87.40
7317;DHT22;3699;51.462;6.696;2023-07-29T10:40:26;28.10;94.90
7317;DHT22;3699;51.462;6.696;2023-07-29T10:43:10;28.10;95.40
7317;DHT22;3699;51.462;6.696;2023-07-29T10:45:40;28.50;85.80
7317;DHT22;3699;51.462;6.696;2023-07-29T10:48:09;28.50;86.70
7317;DHT22;3699;51.462;6.696;2023-07-29T10:50:36;28.70;86.10
7317;DHT22;3699;51.462;6.696;2023-07-29T10:53:04;28.60;87.20
7317;DHT22;3699;51.462;6.696;2023-07-29T10:55:32;28.70;73.40
7317;DHT22;3699;51.462;6.696;2023-07-29T10:58:20;29.00;73.80
7317;DHT22;3699;51.462;6.696;2023-07-29T11:00:49;29.20;69.40
7317;DHT22;3699;51.462;6.696;2023-07-29T11:03:16;29.10;62.60
7317;DHT22;3699;51.462;6.696;2023-07-29T11:05:48;28.80;58.40
7317;DHT22;3699;51.462;6.696;2023-07-29T11:08:19;28.30;64.10
7317;DHT22;3699;51.462;6.696;2023-07-29T11:11:04;28.10;84.20
7317;DHT22;3699;51.462;6.696;2023-07-29T11:13:32;28.00;74.30
7317;DHT22;3699;51.462;6.696;2023-07-29T11:16:01;27.70;76.10
7317;DHT22;3699;51.462;6.696;2023-07-29T11:18:29;27.50;82.60
7317;DHT22;3699;51.462;6.696;2023-07-29T11:20:57;27.20;86.00
7317;DHT22;3699;51.462;6.696;2023-07-29T11:23:31;26.80;90.60
7317;DHT22;3699;51.462;6.696;2023-07-29T11:25:58;26.60;94.30
7317;DHT22;3699;51.462;6.696;2023-07-29T11:28:26;26.40;96.80
7317;DHT22;3699;51.462;6.696;2023-07-29T11:30:53;26.20;98.90
7317;DHT22;3699;51.462;6.696;2023-07-29T11:33:24;26.10;99.90
7317;DHT22;3699;51.462;6.696;2023-07-29T11:35:51;26.10;99.90
7317;DHT22;3699;51.462;6.696;2023-07-29T11:38:20;26.10;99.90
7317;DHT22;3699;51.462;6.696;2023-07-29T11:40:58;25.90;99.90
7317;DHT22;3699;51.462;6.696;2023-07-29T11:43:25;25.90;99.90
7317;DHT22;3699;51.462;6.696;2023-07-29T11:45:52;26.00;99.90
7317;DHT22;3699;51.462;6.696;2023-07-29T11:48:27;26.20;99.90
7317;DHT22;3699;51.462;6.696;2023-07-29T11:50:54;26.40;99.90
7317;DHT22;3699;51.462;6.696;2023-07-29T11:53:21;26.50;99.90
7317;DHT22;3699;51.462;6.696;2023-07-29T11:55:50;26.80;99.90
7317;DHT22;3699;51.462;6.696;2023-07-29T11:58:17;27.00;99.90
7317;DHT22;3699;51.462;6.696;2023-07-29T12:00:44;27.10;94.40
7317;DHT22;3699;51.462;6.696;2023-07-29T12:03:11;27.10;95.00
7317;DHT22;3699;51.462;6.696;2023-07-29T12:05:39;27.10;94.30
7317;DHT22;3699;51.462;6.696;2023-07-29T12:08:08;27.40;91.80
7317;DHT22;3699;51.462;6.696;2023-07-29T12:10:35;28.40;86.50
7317;DHT22;3699;51.462;6.696;2023-07-29T12:13:02;27.40;78.00
7317;DHT22;3699;51.462;6.696;2023-07-29T12:15:29;27.10;79.20
7317;DHT22;3699;51.462;6.696;2023-07-29T12:17:57;27.00;84.50
7317;DHT22;3699;51.462;6.696;2023-07-29T12:20:24;26.80;92.80
7317;DHT22;3699;51.462;6.696;2023-07-29T12:22:53;26.80;92.70
7317;DHT22;3699;51.462;6.696;2023-07-29T12:25:21;26.90;91.90
7317;DHT22;3699;51.462;6.696;2023-07-29T12:27:48;27.20;85.20
7317;DHT22;3699;51.462;6.696;2023-07-29T12:30:15;27.10;89.00
7317;DHT22;3699;51.462;6.696;2023-07-29T12:32:46;26.90;81.20
7317;DHT22;3699;51.462;6.696;2023-07-29T12:35:13;26.80;84.40
7317;DHT22;3699;51.462;6.696;2023-07-29T12:37:40;26.60;91.30
7317;DHT22;3699;51.462;6.696;2023-07-29T12:40:21;26.70;97.40
7317;DHT22;3699;51.462;6.696;2023-07-29T12:42:49;27.00;97.00
7317;DHT22;3699;51.462;6.696;2023-07-29T12:45:16;27.10;89.50
7317;DHT22;3699;51.462;6.696;2023-07-29T12:47:44;27.30;88.60
7317;DHT22;3699;51.462;6.696;2023-07-29T12:50:10;27.60;79.40
7317;DHT22;3699;51.462;6.696;2023-07-29T12:52:37;27.60;83.60
7317;DHT22;3699;51.462;6.696;2023-07-29T12:55:05;27.60;91.10
7317;DHT22;3699;51.462;6.696;2023-07-29T12:57:35;27.70;96.90
7317;DHT22;3699;51.462;6.696;2023-07-29T13:00:02;27.80;82.30
7317;DHT22;3699;51.462;6.696;2023-07-29T13:02:29;27.80;85.70
7317;DHT22;3699;51.462;6.696;2023-07-29T13:04:56;27.90;82.00
7317;DHT22;3699;51.462;6.696;2023-07-29T13:07:22;27.80;77.40
7317;DHT22;3699;51.462;6.696;2023-07-29T13:09:49;27.60;80.50
7317;DHT22;3699;51.462;6.696;2023-07-29T13:12:16;27.60;79.40
7317;DHT22;3699;51.462;6.696;2023-07-29T13:14:44;27.40;82.80
7317;DHT22;3699;51.462;6.696;2023-07-29T13:17:11;27.20;92.90
7317;DHT22;3699;51.462;6.696;2023-07-29T13:19:37;27.00;95.70
7317;DHT22;3699;51.462;6.696;2023-07-29T13:22:04;26.60;97.50
7317;DHT22;3699;51.462;6.696;2023-07-29T13:24:31;26.70;97.20
7317;DHT22;3699;51.462;6.696;2023-07-29T13:26:58;26.40;98.00
7317;DHT22;3699;51.462;6.696;2023-07-29T13:29:25;26.20;96.70
7317;DHT22;3699;51.462;6.696;2023-07-29T13:31:53;26.00;96.50
7317;DHT22;3699;51.462;6.696;2023-07-29T13:34:20;25.60;99.90
7317;DHT22;3699;51.462;6.696;2023-07-29T13:36:47;25.40;99.90
7317;DHT22;3699;51.462;6.696;2023-07-29T13:39:14;25.00;99.90
7317;DHT22;3699;51.462;6.696;2023-07-29T13:41:40;24.90;99.90
7317;DHT22;3699;51.462;6.696;2023-07-29T13:44:07;24.70;99.90
7317;DHT22;3699;51.462;6.696;2023-07-29T13:46:34;24.40;99.90
7317;DHT22;3699;51.462;6.696;2023-07-29T13:49:02;24.20;99.90
7317;DHT22;3699;51.462;6.696;2023-07-29T13:51:29;23.90;99.90
7317;DHT22;3699;51.462;6.696;2023-07-29T13:53:55;23.70;99.90
7317;DHT22;3699;51.462;6.696;2023-07-29T13:56:22;23.20;99.90
7317;DHT22;3699;51.462;6.696;2023-07-29T13:58:49;23.20;99.90
7317;DHT22;3699;51.462;6.696;2023-07-29T14:01:16;23.00;99.90
7317;DHT22;3699;51.462;6.696;2023-07-29T14:03:42;22.70;99.90
7317;DHT22;3699;51.462;6.696;2023-07-29T14:06:11;22.50;99.90
7317;DHT22;3699;51.462;6.696;2023-07-29T14:08:37;22.30;99.90
7317;DHT22;3699;51.462;6.696;2023-07-29T14:11:06;22.10;99.90
7317;DHT22;3699;51.462;6.696;2023-07-29T14:13:33;22.00;99.90
7317;DHT22;3699;51.462;6.696;2023-07-29T14:16:01;22.00;99.90
7317;DHT22;3699;51.462;6.696;2023-07-29T14:18:27;22.10;99.90
7317;DHT22;3699;51.462;6.696;2023-07-29T14:20:54;22.20;99.90
7317;DHT22;3699;51.462;6.696;2023-07-29T14:23:30;22.40;99.90
7317;DHT22;3699;51.462;6.696;2023-07-29T14:25:58;22.60;99.90
7317;DHT22;3699;51.462;6.696;2023-07-29T14:28:25;23.00;99.90
7317;DHT22;3699;51.462;6.696;2023-07-29T14:30:51;23.20;99.90
7317;DHT22;3699;51.462;6.696;2023-07-29T14:33:18;23.50;99.90
7317;DHT22;3699;51.462;6.696;2023-07-29T14:35:45;23.70;99.90
7317;DHT22;3699;51.462;6.696;2023-07-29T14:38:11;23.80;99.90
7317;DHT22;3699;51.462;6.696;2023-07-29T14:40:39;23.70;99.90
7317;DHT22;3699;51.462;6.696;2023-07-29T14:43:06;23.70;99.90
7317;DHT22;3699;51.462;6.696;2023-07-29T14:45:33;23.70;99.90
7317;DHT22;3699;51.462;6.696;2023-07-29T14:47:59;23.40;99.90
7317;DHT22;3699;51.462;6.696;2023-07-29T14:50:26;23.30;99.90
7317;DHT22;3699;51.462;6.696;2023-07-29T14:52:53;23.00;99.90
7317;DHT22;3699;51.462;6.696;2023-07-29T14:55:20;22.80;99.90
7317;DHT22;3699;51.462;6.696;2023-07-29T14:57:48;22.60;99.90
7317;DHT22;3699;51.462;6.696;2023-07-29T15:00:15;22.50;99.90
7317;DHT22;3699;51.462;6.696;2023-07-29T15:02:42;22.30;99.90
7317;DHT22;3699;51.462;6.696;2023-07-29T15:05:08;22.00;99.90
7317;DHT22;3699;51.462;6.696;2023-07-29T15:07:35;22.10;99.90
7317;DHT22;3699;51.462;6.696;2023-07-29T15:10:02;22.10;99.90
7317;DHT22;3699;51.462;6.696;2023-07-29T15:12:29;22.00;99.90
7317;DHT22;3699;51.462;6.696;2023-07-29T15:14:57;22.00;99.90
7317;DHT22;3699;51.462;6.696;2023-07-29T15:17:24;22.00;99.90
7317;DHT22;3699;51.462;6.696;2023-07-29T15:19:50;22.00;99.90
7317;DHT22;3699;51.462;6.696;2023-07-29T15:22:18;22.00;99.90
7317;DHT22;3699;51.462;6.696;2023-07-29T15:24:45;22.00;99.90
7317;DHT22;3699;51.462;6.696;2023-07-29T15:27:12;22.10;99.90
7317;DHT22;3699;51.462;6.696;2023-07-29T15:29:38;22.20;99.90
7317;DHT22;3699;51.462;6.696;2023-07-29T15:32:07;22.30;99.90
7317;DHT22;3699;51.462;6.696;2023-07-29T15:34:34;22.50;99.90
7317;DHT22;3699;51.462;6.696;2023-07-29T15:37:02;22.70;99.90
7317;DHT22;3699;51.462;6.696;2023-07-29T15:39:29;22.90;99.90
7317;DHT22;3699;51.462;6.696;2023-07-29T15:41:56;23.00;99.90
7317;DHT22;3699;51.462;6.696;2023-07-29T15:44:23;23.20;99.90
7317;DHT22;3699;51.462;6.696;2023-07-29T15:46:50;23.30;99.90
7317;DHT22;3699;51.462;6.696;2023-07-29T15:49:19;23.30;99.90
7317;DHT22;3699;51.462;6.696;2023-07-29T15:51:46;23.30;99.90
7317;DHT22;3699;51.462;6.696;2023-07-29T15:54:13;23.30;99.90
7317;DHT22;3699;51.462;6.696;2023-07-29T15:56:39;23.30;99.90
7317;DHT22;3699;51.462;6.696;2023-07-29T15:59:07;23.30;99.90
7317;DHT22;3699;51.462;6.696;2023-07-29T16:01:34;23.20;99.90
7317;DHT22;3699;51.462;6.696;2023-07-29T16:04:01;23.20;99.90
7317;DHT22;3699;51.462;6.696;2023-07-29T16:06:29;23.20;99.90